Schedule Details


Flight Number: CTN300
Departure: Dubrovnik / Cilipi (LDDU) at 15:30
Arrival: Athens Eleftherios Venizelos International Airport (LGAV) at 18:15
Route: MOKUN L187 RODON N732 KRK L53 PIKAD

Weather Information
LDDU 192100Z 10005KT CAVOK 16/13 Q1019 NOSIG
LGAV 192120Z 00000KT CAVOK 13/10 Q1019 NOSIG
Schedule Frequency

Route Map